• Join FlightAware (Why Join?)
  • Login
  • US Flag 
08:36PM EDT


 

Airport Tracker/Info


-or-


 

Live Flight TrackerFlight Track Log ✈ CHH7070 ✈ 10-May-2013 ✈ ZSNB / NGB - ZGGG / CAN

Flight Track Log - Related Links

Times and Time Zones

All times are in EDT time to prevent confusion due to time zone crossing. See the CHH7070 flight status page for this flight to view local times or setup timezone preferences in your user account.

Time Position Orientation Groundspeed Altitude Reporting Facility
EDT Latitude Longitude Course Direction KTS MPH feet Rate Location/Type
08:50AM 29.7631 121.3786 231° Southwest  Level Estimated
08:51AM 29.7011 121.2922 230° Southwest  Level Estimated
08:52AM 29.6391 121.2059 230° Southwest  Level Estimated
08:53AM 29.5770 121.1197 230° Southwest  Level Estimated
08:54AM 29.5149 121.0336 230° Southwest  Level Estimated
08:55AM 29.4527 120.9476 230° Southwest  Level Estimated
08:56AM 29.3905 120.8617 230° Southwest  Level Estimated
08:57AM 29.3282 120.7760 230° Southwest  Level Estimated
08:58AM 29.2659 120.6903 230° Southwest  Level Estimated
08:58AM 29.7900 121.1490 230° Southwest 320 368 7,000  Level FlightAware
08:59AM 29.2035 120.6048 230° Southwest  Level Estimated
08:59AM 29.7620 121.1000 237° Southwest 320 368 7,000  Level FlightAware
09:00AM 29.7270 121.0360 238° Southwest 314 361 7,000 600 Level FlightAware
09:00AM 29.6960 120.9820 237° Southwest 336 387 7,900 2,760 Climbing FlightAware
09:01AM 29.6560 120.9140 236° Southwest 319 367 10,700 3,780 Climbing FlightAware
09:02AM 29.6160 120.8440 237° Southwest 312 359 13,600 2,040 Climbing FlightAware
09:03AM 29.6010 120.7790 255° West 321 369 13,800 120 Climbing FlightAware
09:03AM 29.6030 120.7220 272° West 322 371 13,800  Level FlightAware
09:04AM 29.6030 120.6550 270° West 322 371 13,800  Level FlightAware
09:05AM 29.6030 120.5970 270° West 322 371 13,800 240 Level FlightAware
09:07AM 29.4752 120.4333 228° Southwest  Level Estimated
09:08AM 29.4101 120.3503 228° Southwest  Level Estimated
09:09AM 29.3450 120.2673 228° Southwest  Level Estimated
09:10AM 29.2798 120.1844 228° Southwest  Level Estimated
09:11AM 29.2146 120.1017 228° Southwest  Level Estimated
09:12AM 29.1493 120.0191 228° Southwest  Level Estimated
09:13AM 29.0840 119.9365 228° Southwest  Level Estimated
09:14AM 29.0186 119.8541 228° Southwest  Level Estimated
09:15AM 28.9531 119.7718 228° Southwest  Level Estimated
09:16AM 28.8877 119.6895 228° Southwest  Level Estimated
09:17AM 28.8221 119.6074 228° Southwest  Level Estimated
09:18AM 28.7566 119.5254 228° Southwest  Level Estimated
09:19AM 28.6909 119.4435 228° Southwest  Level Estimated
09:20AM 28.6252 119.3616 228° Southwest  Level Estimated
09:21AM 28.5595 119.2799 228° Southwest  Level Estimated
09:22AM 28.4937 119.1983 227° Southwest  Level Estimated
09:23AM 28.4279 119.1168 227° Southwest  Level Estimated
09:24AM 28.3621 119.0354 227° Southwest  Level Estimated
09:25AM 28.2961 118.9541 227° Southwest  Level Estimated
09:26AM 28.2302 118.8729 227° Southwest  Level Estimated
09:27AM 28.1642 118.7918 227° Southwest  Level Estimated
09:28AM 28.0981 118.7108 227° Southwest  Level Estimated
09:29AM 28.0320 118.6299 227° Southwest  Level Estimated
09:30AM 27.9658 118.5491 227° Southwest  Level Estimated
09:31AM 27.8996 118.4684 227° Southwest  Level Estimated
09:32AM 27.8334 118.3878 227° Southwest  Level Estimated
09:33AM 27.7671 118.3073 227° Southwest  Level Estimated
09:34AM 27.7007 118.2269 227° Southwest  Level Estimated
09:35AM 27.6343 118.1466 227° Southwest  Level Estimated
09:36AM 27.5679 118.0663 227° Southwest  Level Estimated
09:37AM 27.5014 117.9862 227° Southwest  Level Estimated
09:38AM 27.4349 117.9062 227° Southwest  Level Estimated
09:39AM 27.3683 117.8263 227° Southwest  Level Estimated
09:40AM 27.3017 117.7465 227° Southwest  Level Estimated
09:41AM 27.2350 117.6667 227° Southwest  Level Estimated
09:42AM 27.1683 117.5871 227° Southwest  Level Estimated
09:43AM 27.1015 117.5075 227° Southwest  Level Estimated
09:44AM 27.0347 117.4281 227° Southwest  Level Estimated
09:45AM 26.9679 117.3487 227° Southwest  Level Estimated
09:46AM 26.9010 117.2695 227° Southwest  Level Estimated
09:47AM 26.8341 117.1903 227° Southwest  Level Estimated
09:48AM 26.7671 117.1113 227° Southwest  Level Estimated
09:49AM 26.7001 117.0323 226° Southwest  Level Estimated
09:50AM 26.6330 116.9534 226° Southwest  Level Estimated
09:51AM 26.5659 116.8746 226° Southwest  Level Estimated
09:52AM 26.4987 116.7959 226° Southwest  Level Estimated
09:53AM 26.4353 116.7217 226° Southwest  Level Estimated
09:54AM 26.3719 116.6477 226° Southwest  Level Estimated
09:55AM 26.3084 116.5736 226° Southwest  Level Estimated
09:56AM 26.2449 116.4997 226° Southwest  Level Estimated
09:57AM 26.1814 116.4259 226° Southwest  Level Estimated
09:58AM 26.1178 116.3521 226° Southwest  Level Estimated
09:59AM 26.0542 116.2785 226° Southwest  Level Estimated
10:00AM 25.9905 116.2048 226° Southwest  Level Estimated
10:01AM 25.9268 116.1313 226° Southwest  Level Estimated
10:02AM 25.8631 116.0579 226° Southwest  Level Estimated
10:03AM 25.7993 115.9845 226° Southwest  Level Estimated
10:04AM 25.7355 115.9112 226° Southwest  Level Estimated
10:05AM 25.6717 115.8381 226° Southwest  Level Estimated
10:06AM 25.6078 115.7649 226° Southwest  Level Estimated
10:07AM 25.5439 115.6919 226° Southwest  Level Estimated
10:08AM 25.4800 115.6189 226° Southwest  Level Estimated
10:09AM 25.4160 115.5460 226° Southwest  Level Estimated
10:10AM 25.3519 115.4732 226° Southwest  Level Estimated
10:11AM 25.2879 115.4005 226° Southwest  Level Estimated
10:11AM 25.6120 114.7690 226° Southwest 366 421 30,100  Level FlightAware
10:12AM 25.2238 115.3278 226° Southwest  Level Estimated
10:12AM 25.5210 114.7470 192° South 365 420 30,100  Level FlightAware
10:13AM 25.4460 114.7280 193° South 390 449 29,500 -540 Descending FlightAware
10:14AM 25.3900 114.7150 192° South 392 451 29,400 -120 Descending FlightAware
10:14AM 25.3300 114.7010 192° South 392 451 29,400 -1,140 Level FlightAware
10:15AM 25.2240 114.6740 193° South 392 451 27,700 -2,160 Descending FlightAware
10:16AM 25.1530 114.6560 193° South 378 435 26,200 -1,800 Descending FlightAware
10:16AM 25.0840 114.6390 193° South 376 433 25,300 -1,380 Descending FlightAware
10:17AM 25.0060 114.6190 193° South 370 426 24,300 -1,380 Descending FlightAware
10:18AM 24.9400 114.6030 192° South 371 427 23,400 -1,320 Descending FlightAware
10:19AM 24.8650 114.5850 192° South 369 425 22,500 -1,320 Descending FlightAware
10:19AM 24.7970 114.5680 193° South 368 423 21,600 -1,380 Descending FlightAware
10:20AM 24.7240 114.5500 193° South 364 419 20,600 -1,320 Descending FlightAware
10:21AM 24.6530 114.5230 199° South 359 413 19,700 -1,320 Descending FlightAware
10:21AM 24.5970 114.4860 211° Southwest 351 404 18,800 -1,380 Descending FlightAware
10:22AM 24.5410 114.4480 212° Southwest 344 396 17,900 -1,440 Descending FlightAware
10:23AM 24.4810 114.4070 212° Southwest 326 375 16,800 -1,380 Descending FlightAware
10:23AM 24.4430 114.3820 211° Southwest 316 364 16,200 -480 Descending FlightAware
10:24AM 24.3830 114.3430 211° Southwest 316 364 16,200  Level FlightAware
10:25AM 24.3410 114.3150 211° Southwest 316 364 16,200 -1,080 Level FlightAware
10:26AM 24.2780 114.2720 212° Southwest 311 358 14,800 -1,080 Descending FlightAware
10:26AM 24.2270 114.2380 211° Southwest 309 356 14,800  Level FlightAware
10:27AM 24.1730 114.2020 211° Southwest 309 356 14,800  Level FlightAware
10:28AM 24.1150 114.1640 211° Southwest 311 358 14,800 -240 Level FlightAware
10:28AM 24.0660 114.1300 212° Southwest 310 357 14,500 -540 Descending FlightAware
10:29AM 24.0210 114.1010 210° Southwest 309 356 14,100 -300 Descending FlightAware
10:30AM 23.9790 114.0730 211° Southwest 309 356 14,100  Level FlightAware
10:30AM 23.9370 114.0460 210° Southwest 309 356 14,100 -1,140 Level FlightAware
10:33AM 23.8154 113.8782 232° Southwest  Level Estimated
10:34AM 23.7583 113.7996 232° Southwest  Level Estimated
10:34AM 23.7500 113.7820 232° Southwest 193 222 8,800  Level FlightAware
10:35AM 23.7420 113.7710 232° Southwest 193 222 8,500 -1,080 Descending FlightAware
10:35AM 23.7280 113.7510 233° Southwest 188 216 8,100 -540 Descending FlightAware
10:36AM 23.7110 113.7280 231° Southwest 186 214 8,000 -540 Descending FlightAware
10:37AM 23.6680 113.6700 231° Southwest 181 208 7,100 -540 Descending FlightAware
10:37AM 23.6580 113.6550 234° Southwest 182 209 7,100 -180 Level FlightAware
10:38AM 23.6470 113.6410 229° Southwest 182 209 7,000 -960 Descending FlightAware
10:38AM 23.6310 113.6190 232° Southwest 185 213 6,300 -1,140 Descending FlightAware
10:39AM 23.6180 113.6010 232° Southwest 183 211 6,000 -300 Descending FlightAware
10:39AM 23.6130 113.5890 246° West 179 206 6,100  Climbing FlightAware
10:40AM 23.6290 113.5520 295° West 189 217 6,000 -360 Descending FlightAware
10:40AM 23.6360 113.5470 327° Northwest 187 215 5,800 -1,080 Descending FlightAware
10:40AM 23.6590 113.5330 331° Northwest 188 216 5,300 -1,020 Descending FlightAware
10:41AM 23.6710 113.5180 311° West 182 209 4,900 -540 Descending FlightAware
10:41AM 23.6760 113.4870 280° West 182 209 4,800 -660 Descending FlightAware
10:42AM 23.6830 113.4390 279° West 179 206 4,000 -900 Descending FlightAware
10:43AM 23.6790 113.4120 261° West 180 207 3,600 -720 Descending FlightAware
10:43AM 23.6770 113.4090 234° Southwest 180 207 3,600  Level FlightAware
10:43AM 23.6680 113.3910 241° Southwest 180 207 3,600 -480 Level FlightAware
10:44AM 23.6480 113.3800 207° Southwest 179 206 3,200 -480 Descending FlightAware
10:44AM 23.6230 113.3720 196° South 181 208 3,200  Level FlightAware
10:44AM 23.6020 113.3660 195° South 182 209 3,200  Level FlightAware
10:45AM 23.5810 113.3610 192° South 183 211 3,200 -300 Level FlightAware
10:45AM 23.5530 113.3530 195° South 177 204 2,900 -600 Descending FlightAware
10:46AM 23.5340 113.3480 194° South 168 193 2,600 -780 Descending FlightAware
10:46AM 23.5130 113.3420 195° South 156 180 2,200 -720 Descending FlightAware
10:47AM 23.4990 113.3390 191° South 151 174 2,000 -420 Descending FlightAware
10:47AM 23.4730 113.3320 194° South 149 171 1,800 -300 Descending FlightAware
10:50AM 23.3924 113.2988 201° Southwest  Level Estimated
10:51AM 23.3924 113.2988 223° Southwest  Level Estimated
10:52AM 23.3924 113.2988 223° Southwest  Level Estimated
10:53AM 23.3924 113.2988 223° Southwest  Level Estimated
10:54AM 23.3924 113.2988 223° Southwest  Level Estimated
10:55AM 23.3924 113.2988 223° Southwest  Level Estimated